Time;durP1;ratioP1;P1;durP2;ratioP2;P2;SDS_P1;SDS_P2;PMS_P1;PMS_P2;Temp;Humidity;BMP_temperature;BMP_pressure;BME280_temperature;BME280_humidity;BME280_pressure;Samples;Min_cycle;Max_cycle;Signal;HPM_P1;HPM_P2
2021/04/21 00:01:17;;;;;;;41.30;25.13;;;;;;;3.93;97.87;95078.38;5106656;28;20044;-65
2021/04/21 00:03:44;;;;;;;40.03;25.27;;;;;;;3.96;98.80;95078.03;5106890;28;20051;-66
2021/04/21 00:06:15;;;;;;;42.58;24.83;;;;;;;4.00;98.91;95083.63;5105169;28;20515;-66
2021/04/21 00:08:44;;;;;;;42.53;25.73;;;;;;;4.00;98.91;95081.81;5107100;28;20065;-66
2021/04/21 00:11:11;;;;;;;44.05;26.85;;;;;;;3.99;98.70;95076.84;5105491;28;20054;-66
2021/04/21 00:13:38;;;;;;;48.28;28.73;;;;;;;4.08;98.64;95085.25;5108329;27;20036;-67
2021/04/21 00:16:05;;;;;;;39.15;25.25;;;;;;;4.25;98.23;95081.47;5106377;28;20074;-66
2021/04/21 00:18:36;;;;;;;43.35;25.10;;;;;;;4.43;96.95;95069.88;5106528;27;20044;-67
2021/04/21 00:21:04;;;;;;;46.78;26.33;;;;;;;4.48;95.84;95055.44;5106450;28;20092;-67
2021/04/21 00:23:33;;;;;;;42.03;26.60;;;;;;;4.69;94.45;95062.34;5106252;28;20054;-66
2021/04/21 00:26:01;;;;;;;44.95;26.65;;;;;;;4.79;93.23;95060.25;5106470;28;20035;-66
2021/04/21 00:28:32;;;;;;;39.13;25.23;;;;;;;4.85;92.56;95071.59;5106304;27;20047;-66
2021/04/21 00:31:03;;;;;;;44.80;24.95;;;;;;;4.57;93.90;95061.28;5105219;28;20058;-66
2021/04/21 00:33:31;;;;;;;42.65;26.73;;;;;;;4.63;94.16;95068.28;5106190;28;20043;-67
2021/04/21 00:36:00;;;;;;;43.90;25.15;;;;;;;4.73;93.36;95073.88;5104789;28;20052;-67
2021/04/21 00:38:27;;;;;;;53.75;27.65;;;;;;;4.79;92.85;95069.78;5105460;27;20115;-66
2021/04/21 00:41:00;;;;;;;53.95;29.17;;;;;;;4.89;92.19;95072.00;5106241;28;20047;-66
2021/04/21 00:43:34;;;;;;;50.58;28.73;;;;;;;5.00;91.48;95074.06;5106897;28;20047;-66
2021/04/21 00:46:17;;;;;;;62.38;32.80;;;;;;;4.88;91.91;95076.38;5105801;28;20039;-66
2021/04/21 00:49:15;;;;;;;67.53;35.95;;;;;;;4.57;94.60;95074.16;5088191;28;20096;-66
2021/04/21 00:51:50;;;;;;;62.67;31.38;;;;;;;4.46;95.00;95072.09;5087854;28;20046;-66
2021/04/21 00:54:50;;;;;;;65.05;34.22;;;;;;;4.34;94.81;95070.03;5109241;27;20032;-66
2021/04/21 00:57:45;;;;;;;55.30;29.88;;;;;;;4.42;95.00;95076.06;5087594;28;20042;-66
2021/04/21 01:00:17;;;;;;;49.95;28.00;;;;;;;4.58;94.65;95065.47;5106006;28;20105;-66
2021/04/21 01:03:02;;;;;;;53.33;28.92;;;;;;;4.75;93.84;95071.13;5089071;28;20040;-66
2021/04/21 01:05:37;;;;;;;;;;;;;;;4.81;94.25;95072.97;5088015;28;20051;-67
2021/04/21 01:08:08;;;;;;;40.60;24.73;;;;;;;4.55;95.35;95076.13;5086713;28;19928;-66
2021/04/21 01:10:42;;;;;;;47.28;26.85;;;;;;;4.53;95.31;95067.78;5088846;28;20044;-67
2021/04/21 01:13:08;;;;;;;40.38;24.27;;;;;;;4.62;95.60;95076.19;5105819;28;20039;-67
2021/04/21 01:15:38;;;;;;;45.47;26.65;;;;;;;4.82;94.85;95071.16;5105757;28;20043;-67
2021/04/21 01:18:07;;;;;;;40.08;24.00;;;;;;;4.93;94.21;95070.63;5105573;28;20032;-66
2021/04/21 01:20:55;;;;;;;35.88;23.05;;;;;;;4.62;96.30;95066.66;5105737;28;20047;-66
2021/04/21 01:24:09;;;;;;;34.78;22.52;;;;;;;4.73;95.48;95067.94;5105519;28;20032;-66
2021/04/21 01:26:35;;;;;;;42.13;23.60;;;;;;;4.69;95.49;95072.66;5084060;28;20050;-67
2021/04/21 01:29:04;;;;;;;42.83;25.27;;;;;;;4.74;95.27;95070.31;5105494;28;20035;-67
2021/04/21 01:31:33;;;;;;;54.70;35.63;;;;;;;4.39;97.56;95074.63;5105379;28;20058;-66
2021/04/21 01:34:03;;;;;;;83.20;56.67;;;;;;;4.16;99.51;95082.56;5105498;28;20066;-66
2021/04/21 01:36:31;;;;;;;87.90;59.78;;;;;;;3.96;100.00;95065.13;5105283;28;20054;-66
2021/04/21 01:39:01;;;;;;;101.55;68.88;;;;;;;3.92;100.00;95076.78;5105386;28;20058;-67
2021/04/21 01:41:36;;;;;;;110.00;74.00;;;;;;;3.88;100.00;95074.75;5104448;28;20039;-66
2021/04/21 01:44:08;;;;;;;94.22;64.82;;;;;;;3.79;100.00;95074.06;5106733;28;20035;-66
2021/04/21 01:46:41;;;;;;;88.47;58.08;;;;;;;3.77;100.00;95078.63;5105478;28;20058;-66
2021/04/21 01:49:37;;;;;;;72.15;41.92;;;;;;;3.87;100.00;95068.81;5105475;28;20486;-66
2021/04/21 01:52:14;;;;;;;57.90;35.92;;;;;;;4.10;100.00;95078.16;5068900;28;20063;-67
2021/04/21 01:54:43;;;;;;;54.42;33.38;;;;;;;4.25;99.32;95075.50;5104500;28;20032;-67
2021/04/21 01:57:23;;;;;;;55.47;34.10;;;;;;;4.36;97.83;95078.38;5105695;28;20043;-66
2021/04/21 02:00:01;;;;;;;52.72;33.22;;;;;;;4.07;97.56;95081.06;5109441;27;20044;-66
2021/04/21 02:02:30;;;;;;;53.53;33.88;;;;;;;3.85;98.23;95075.91;5108941;28;20039;-66
2021/04/21 02:05:26;;;;;;;56.15;33.90;;;;;;;4.02;98.06;95077.28;5109141;27;20050;-66
2021/04/21 02:08:19;;;;;;;52.72;32.72;;;;;;;4.19;96.97;95082.19;5100902;27;20062;-67
2021/04/21 02:11:06;;;;;;;49.63;30.67;;;;;;;4.11;96.50;95074.59;5109177;28;20035;-66
2021/04/21 02:13:56;;;;;;;51.60;31.08;;;;;;;4.13;96.00;95077.78;5108981;28;20035;-66
2021/04/21 02:16:29;;;;;;;49.35;29.40;;;;;;;4.08;95.88;95080.09;5108074;28;20044;-66
2021/04/21 02:19:15;;;;;;;47.40;27.70;;;;;;;3.97;96.15;95084.75;5108947;28;20086;-66
2021/04/21 02:21:53;;;;;;;44.28;27.65;;;;;;;3.92;95.72;95089.66;5108703;28;20036;-66
2021/04/21 02:24:22;;;;;;;46.60;27.52;;;;;;;4.01;95.11;95085.19;5107728;28;20048;-67
2021/04/21 02:26:59;;;;;;;40.65;26.40;;;;;;;4.00;94.60;95089.56;5108171;28;20428;-66
2021/04/21 02:29:34;;;;;;;42.25;26.48;;;;;;;4.07;94.37;95091.38;5108377;27;20436;-66
2021/04/21 02:32:00;;;;;;;;;;;;;;;4.15;93.56;95091.28;5109290;28;20058;-66
2021/04/21 02:35:04;;;;;;;37.67;24.38;;;;;;;4.17;93.15;95091.88;5110029;27;19931;-66
2021/04/21 02:37:39;;;;;;;43.53;26.05;;;;;;;3.82;95.71;95091.75;5108489;28;20424;-67
2021/04/21 02:40:27;;;;;;;46.90;26.83;;;;;;;3.62;97.04;95097.47;5108089;27;20428;-66
2021/04/21 02:43:08;;;;;;;43.55;27.60;;;;;;;3.64;97.36;95100.66;5107562;27;20039;-66
2021/04/21 02:45:58;;;;;;;40.80;24.77;;;;;;;3.78;96.67;95091.31;5107555;28;20047;-66
2021/04/21 02:48:47;;;;;;;45.38;24.85;;;;;;;3.88;95.71;95093.59;5107647;28;20036;-67
2021/04/21 02:51:23;;;;;;;39.42;24.27;;;;;;;3.93;94.60;95099.00;5107898;27;20049;-66
2021/04/21 02:53:55;;;;;;;40.97;22.92;;;;;;;3.98;93.77;95107.00;5107496;27;20043;-67
2021/04/21 02:56:36;;;;;;;43.20;24.35;;;;;;;4.00;93.13;95109.38;5107881;27;20150;-67
2021/04/21 02:59:34;;;;;;;42.53;25.42;;;;;;;3.99;92.81;95112.94;5107796;28;20043;-66
2021/04/21 03:02:08;;;;;;;40.05;22.88;;;;;;;3.89;92.61;95102.94;5106847;28;20040;-67
2021/04/21 03:04:46;;;;;;;38.53;23.95;;;;;;;4.07;92.33;95112.00;5107879;28;20042;-67
2021/04/21 03:07:35;;;;;;;40.92;23.48;;;;;;;4.09;92.13;95110.03;5088909;28;20050;-66
2021/04/21 03:10:11;;;;;;;88.70;43.22;;;;;;;4.06;92.07;95102.69;5123416;27;20053;-67
2021/04/21 03:12:41;;;;;;;60.20;34.58;;;;;;;4.19;92.17;95107.97;5106454;28;20035;-66
2021/04/21 03:15:13;;;;;;;88.28;43.80;;;;;;;4.15;92.36;95099.81;5108012;27;20118;-66
2021/04/21 03:17:42;;;;;;;115.25;58.20;;;;;;;4.17;92.50;95097.03;5106400;28;20136;-66
2021/04/21 03:20:14;;;;;;;90.38;48.30;;;;;;;4.26;92.34;95114.00;5106702;27;20039;-68
2021/04/21 03:22:44;;;;;;;79.00;45.42;;;;;;;4.29;92.17;95113.63;5107888;28;20118;-67
2021/04/21 03:25:37;;;;;;;46.60;28.85;;;;;;;4.35;92.02;95107.72;5106803;28;20066;-66
2021/04/21 03:28:09;;;;;;;40.88;24.70;;;;;;;4.39;91.95;95115.88;5105586;28;20048;-67
2021/04/21 03:30:36;;;;;;;43.58;24.73;;;;;;;4.31;92.26;95106.50;5109236;27;20035;-67
2021/04/21 03:33:24;;;;;;;40.10;24.42;;;;;;;4.26;93.18;95118.34;5107689;28;20039;-67
2021/04/21 03:35:52;;;;;;;42.90;25.70;;;;;;;4.18;93.76;95116.69;5107304;27;20036;-67
2021/04/21 03:38:20;;;;;;;54.47;31.38;;;;;;;4.19;94.02;95128.59;5107477;28;20047;-67
2021/04/21 03:40:47;;;;;;;54.83;33.70;;;;;;;3.89;96.24;95133.84;5106635;27;20051;-66
2021/04/21 03:43:14;;;;;;;54.75;33.42;;;;;;;3.93;96.47;95124.78;5107320;28;20036;-67
2021/04/21 03:45:44;;;;;;;52.67;31.92;;;;;;;4.02;95.62;95128.81;5107123;28;20036;-66
2021/04/21 03:48:13;;;;;;;51.67;32.10;;;;;;;4.07;94.82;95130.06;5107224;28;20504;-66
2021/04/21 03:50:39;;;;;;;52.17;31.00;;;;;;;4.09;94.14;95128.09;5107047;28;20057;-67
2021/04/21 03:53:08;;;;;;;45.25;28.98;;;;;;;4.00;94.17;95140.31;5105703;28;20040;-67
2021/04/21 03:55:36;;;;;;;53.08;32.30;;;;;;;3.85;95.73;95132.59;5106348;27;20423;-66
2021/04/21 03:58:09;;;;;;;52.85;30.60;;;;;;;3.94;95.23;95136.69;5088281;28;20452;-67
2021/04/21 04:00:41;;;;;;;60.20;32.87;;;;;;;3.72;96.44;95137.63;5107104;28;20039;-67
2021/04/21 04:03:28;;;;;;;60.35;31.25;;;;;;;3.37;98.75;95145.13;5108250;27;20047;-66
2021/04/21 04:06:14;;;;;;;52.08;30.52;;;;;;;3.46;98.22;95144.03;5106584;28;20440;-67
2021/04/21 04:08:57;;;;;;;48.58;29.48;;;;;;;3.56;97.46;95141.97;5105152;28;20053;-66
2021/04/21 04:11:33;;;;;;;46.75;27.38;;;;;;;3.66;96.59;95144.28;5105899;28;20054;-66
2021/04/21 04:14:27;;;;;;;48.97;28.05;;;;;;;3.71;96.02;95136.00;5108138;27;20047;-67
2021/04/21 04:16:56;;;;;;;45.67;26.80;;;;;;;3.80;95.44;95140.09;5106371;28;20047;-66
2021/04/21 04:19:22;;;;;;;43.60;25.55;;;;;;;3.87;95.40;95147.88;5106536;28;20569;-66
2021/04/21 04:22:05;;;;;;;45.60;27.15;;;;;;;3.75;96.58;95152.72;5105740;28;20475;-66
2021/04/21 04:24:41;;;;;;;60.28;31.83;;;;;;;3.76;96.75;95160.28;5108246;27;20047;-67
2021/04/21 04:27:14;;;;;;;49.78;30.85;;;;;;;3.68;98.33;95154.41;5105275;28;20047;-67
2021/04/21 04:29:42;;;;;;;48.38;25.85;;;;;;;3.57;98.71;95151.31;5105639;28;20462;-67
2021/04/21 04:32:16;;;;;;;41.72;24.30;;;;;;;3.71;98.36;95156.63;5106821;28;20115;-67
2021/04/21 04:35:02;;;;;;;42.20;24.38;;;;;;;3.86;98.39;95162.56;5105628;28;20054;-67
2021/04/21 04:37:30;;;;;;;42.88;24.98;;;;;;;3.89;97.55;95154.47;5105744;28;20435;-67
2021/04/21 04:39:56;;;;;;;43.70;24.63;;;;;;;4.05;97.60;95157.78;5105888;28;20077;-67
2021/04/21 04:42:23;;;;;;;37.67;23.55;;;;;;;4.29;97.00;95169.56;5107423;27;20437;-67
2021/04/21 04:44:51;;;;;;;41.20;24.13;;;;;;;4.50;96.88;95176.50;5107403;27;20501;-67
2021/04/21 04:47:28;;;;;;;56.80;34.83;;;;;;;4.70;96.44;95176.66;5106389;28;20054;-67
2021/04/21 04:50:00;;;;;;;61.38;38.10;;;;;;;4.73;96.10;95179.69;5104758;28;20039;-67
2021/04/21 04:52:27;;;;;;;49.85;32.17;;;;;;;4.89;97.12;95180.41;5107305;28;20040;-67
2021/04/21 04:54:54;;;;;;;36.55;23.33;;;;;;;4.79;98.20;95176.38;5106293;28;20122;-67
2021/04/21 04:57:21;;;;;;;39.30;22.25;;;;;;;4.86;97.58;95180.78;5106391;28;20051;-68
2021/04/21 04:59:48;;;;;;;46.05;23.58;;;;;;;4.96;97.95;95179.47;5105791;28;20048;-68
2021/04/21 05:02:18;;;;;;;36.80;21.88;;;;;;;5.13;96.64;95182.59;5106061;28;20039;-68
2021/04/21 05:05:00;;;;;;;36.03;21.45;;;;;;;5.19;93.44;95181.03;5107346;27;20040;-68
2021/04/21 05:07:52;;;;;;;37.85;23.27;;;;;;;5.43;93.33;95182.38;5103085;28;20512;-68
2021/04/21 05:10:31;;;;;;;37.83;21.45;;;;;;;5.57;92.05;95188.41;5089113;28;20047;-68
2021/04/21 05:13:02;;;;;;;34.65;22.77;;;;;;;5.63;91.25;95192.03;5087448;28;20039;-67
2021/04/21 05:15:37;;;;;;;34.47;22.38;;;;;;;5.74;92.79;95194.06;5088683;28;20051;-68
2021/04/21 05:18:12;;;;;;;37.80;22.48;;;;;;;5.92;92.54;95196.94;5105924;28;20039;-68
2021/04/21 05:21:15;;;;;;;33.22;21.67;;;;;;;6.07;92.26;95203.81;5104543;28;20068;-68
2021/04/21 05:24:13;;;;;;;39.05;22.77;;;;;;;6.30;92.43;95209.47;5105030;28;20032;-68
2021/04/21 05:26:45;;;;;;;38.92;21.83;;;;;;;6.29;91.34;95201.88;5105979;28;20703;-69
2021/04/21 05:29:35;;;;;;;35.30;21.73;;;;;;;6.53;89.27;95210.88;5105064;28;20051;-68
2021/04/21 05:32:23;;;;;;;41.35;22.00;;;;;;;6.73;88.78;95202.38;5108938;28;20039;-68
2021/04/21 05:35:21;;;;;;;36.95;22.95;;;;;;;6.73;89.85;95207.53;5111538;27;20118;-68
2021/04/21 05:37:53;;;;;;;33.60;20.98;;;;;;;6.70;88.98;95204.34;5110068;27;20040;-69
2021/04/21 05:40:41;;;;;;;34.15;22.08;;;;;;;6.90;87.40;95213.94;5109124;28;20100;-68
2021/04/21 05:43:28;;;;;;;34.35;21.27;;;;;;;7.08;86.30;95221.91;5109673;27;20023;-68
2021/04/21 05:46:03;;;;;;;34.22;21.20;;;;;;;7.14;86.71;95215.13;5109112;27;20040;-68
2021/04/21 05:48:39;;;;;;;30.10;19.30;;;;;;;7.21;86.69;95215.16;5109539;28;20067;-68
2021/04/21 05:51:17;;;;;;;37.22;21.58;;;;;;;7.18;87.32;95218.13;5108932;27;20052;-69
2021/04/21 05:54:03;;;;;;;34.30;20.23;;;;;;;7.24;86.59;95217.34;5108208;27;20384;-69
2021/04/21 05:56:47;;;;;;;32.67;20.00;;;;;;;7.43;86.90;95219.09;5109403;27;20044;-68
2021/04/21 05:59:32;;;;;;;26.63;18.08;;;;;;;7.53;84.68;95228.28;5108012;28;20048;-69
2021/04/21 06:02:02;;;;;;;31.17;18.50;;;;;;;7.66;84.37;95217.88;5110940;27;20058;-68
2021/04/21 06:04:29;;;;;;;33.33;18.23;;;;;;;7.80;84.26;95224.63;5109244;28;20031;-68
2021/04/21 06:07:06;;;;;;;26.90;18.20;;;;;;;7.91;83.27;95227.59;5109264;27;20039;-69
2021/04/21 06:09:33;;;;;;;31.80;19.60;;;;;;;7.81;83.40;95226.22;5108170;27;20520;-68
2021/04/21 06:12:07;;;;;;;31.63;19.15;;;;;;;7.93;83.47;95233.38;5109258;28;20050;-68
2021/04/21 06:14:34;;;;;;;41.25;24.63;;;;;;;8.11;83.26;95241.28;5089991;27;20123;-69
2021/04/21 06:17:01;;;;;;;30.65;20.27;;;;;;;8.19;81.80;95228.09;5110572;27;20116;-69
2021/04/21 06:19:27;;;;;;;34.13;21.95;;;;;;;8.27;81.93;95244.44;5090491;28;20043;-69
2021/04/21 06:21:53;;;;;;;32.28;19.65;;;;;;;8.19;82.51;95238.47;5110276;27;20524;-68
2021/04/21 06:24:21;;;;;;;31.92;20.67;;;;;;;8.23;82.98;95239.66;5108948;28;20043;-69
2021/04/21 06:26:48;;;;;;;29.55;18.38;;;;;;;8.23;83.84;95239.66;5102791;27;20123;-69
2021/04/21 06:29:14;;;;;;;37.42;23.15;;;;;;;8.33;82.61;95228.03;5102982;27;20451;-68
2021/04/21 06:31:52;;;;;;;33.88;21.00;;;;;;;8.53;83.01;95239.13;5106685;27;20062;-68
2021/04/21 06:34:18;;;;;;;34.90;19.70;;;;;;;8.43;83.55;95238.81;5106396;27;20039;-68
2021/04/21 06:36:49;;;;;;;26.98;17.70;;;;;;;8.63;82.15;95237.91;5107756;27;20079;-69
2021/04/21 06:39:18;;;;;;;31.02;18.83;;;;;;;8.71;81.65;95240.25;5107618;27;20461;-68
2021/04/21 06:41:45;;;;;;;27.83;17.95;;;;;;;8.83;81.52;95243.78;5106953;27;20142;-68
2021/04/21 06:44:14;;;;;;;26.58;17.20;;;;;;;9.02;80.61;95249.06;5107122;27;20039;-69
2021/04/21 06:46:41;;;;;;;27.58;17.45;;;;;;;9.11;80.03;95251.19;5107117;27;20527;-69
2021/04/21 06:49:08;;;;;;;26.58;17.60;;;;;;;9.08;80.44;95246.41;5106936;27;20040;-68
2021/04/21 06:51:35;;;;;;;27.95;16.98;;;;;;;9.28;80.20;95241.06;5089054;27;20055;-68
2021/04/21 06:54:06;;;;;;;25.95;15.40;;;;;;;9.51;79.36;95245.69;5105564;27;20039;-69
2021/04/21 06:56:35;;;;;;;844.78;430.42;;;;;;;9.65;77.79;95246.38;5105654;27;20102;-68
2021/04/21 06:59:04;;;;;;;46.08;26.67;;;;;;;9.74;77.04;95247.66;5107487;27;20553;-68
2021/04/21 07:01:31;;;;;;;30.75;17.95;;;;;;;9.90;76.03;95242.91;5104950;27;20500;-68
2021/04/21 07:04:10;;;;;;;26.20;15.90;;;;;;;10.02;75.90;95246.38;5105856;27;20043;-68
2021/04/21 07:06:40;;;;;;;20.95;13.73;;;;;;;10.17;75.16;95243.41;5104921;27;20040;-68
2021/04/21 07:09:14;;;;;;;24.65;11.88;;;;;;;10.25;74.05;95250.16;5104866;27;20050;-68
2021/04/21 07:11:43;;;;;;;18.00;11.03;;;;;;;10.21;73.33;95233.34;5104316;28;20133;-68
2021/04/21 07:14:11;;;;;;;15.80;10.98;;;;;;;10.40;73.10;95253.19;5106917;27;20081;-68
2021/04/21 07:16:40;;;;;;;25.20;14.18;;;;;;;10.48;71.62;95249.50;5100925;27;20182;-68
2021/04/21 07:19:11;;;;;;;14.45;9.50;;;;;;;10.59;70.86;95242.72;5105581;27;20123;-69
2021/04/21 07:21:40;;;;;;;18.52;10.43;;;;;;;10.60;69.46;95244.34;5106475;27;20043;-69
2021/04/21 07:24:10;;;;;;;14.82;10.45;;;;;;;10.52;70.52;95238.41;5106209;27;20050;-69
2021/04/21 07:26:44;;;;;;;27.40;11.15;;;;;;;10.74;70.12;95243.16;5087819;28;20051;-69
2021/04/21 07:29:22;;;;;;;12.65;9.27;;;;;;;10.78;69.29;95249.50;5106260;27;20043;-69
2021/04/21 07:31:50;;;;;;;17.33;10.70;;;;;;;11.07;70.72;95241.88;5105027;27;20060;-70
2021/04/21 07:34:32;;;;;;;17.17;9.88;;;;;;;11.21;68.74;95238.03;5105717;27;20112;-69
2021/04/21 07:36:59;;;;;;;14.98;9.15;;;;;;;11.47;67.86;95251.69;5086692;28;20101;-70
2021/04/21 07:39:35;;;;;;;13.98;9.02;;;;;;;11.40;67.98;95253.63;5105028;27;20047;-69
2021/04/21 07:42:03;;;;;;;35.65;16.73;;;;;;;11.36;68.15;95247.25;5106370;27;20048;-70
2021/04/21 07:44:50;;;;;;;13.65;9.02;;;;;;;11.22;66.90;95254.50;5105943;27;20587;-69
2021/04/21 07:47:19;;;;;;;18.75;12.15;;;;;;;11.00;68.19;95252.41;5106031;27;20051;-69
2021/04/21 07:49:54;;;;;;;17.90;8.73;;;;;;;10.81;65.50;95249.06;5106535;27;20039;-69
2021/04/21 07:52:24;;;;;;;;;;;;;;;10.90;66.81;95252.94;5102610;28;20051;-69
2021/04/21 07:55:14;;;;;;;11.75;7.30;;;;;;;10.96;64.97;95250.47;5088648;28;19984;-69
2021/04/21 07:57:44;;;;;;;22.10;11.93;;;;;;;11.17;67.66;95251.78;5106715;27;20069;-69
2021/04/21 08:00:25;;;;;;;14.70;7.40;;;;;;;11.37;65.01;95251.47;5106565;27;20588;-68
2021/04/21 08:02:51;;;;;;;13.15;8.77;;;;;;;11.50;64.11;95259.06;5086655;28;20035;-69
2021/04/21 08:05:18;;;;;;;18.13;10.27;;;;;;;11.79;62.26;95261.78;5103851;28;20039;-70
2021/04/21 08:08:00;;;;;;;6.68;5.05;;;;;;;11.91;59.57;95267.84;5103895;27;20139;-70
2021/04/21 08:10:29;;;;;;;7.95;5.43;;;;;;;12.10;58.88;95262.47;5104693;27;20046;-69
2021/04/21 08:12:58;;;;;;;6.85;5.38;;;;;;;12.11;57.67;95261.47;5086036;28;20144;-69
2021/04/21 08:15:32;;;;;;;6.40;5.10;;;;;;;12.11;58.87;95253.63;5103653;27;20051;-70
2021/04/21 08:18:08;;;;;;;10.32;7.30;;;;;;;12.14;60.53;95237.50;5104500;27;20071;-71
2021/04/21 08:20:43;;;;;;;11.05;6.22;;;;;;;12.34;57.77;95271.84;5103936;27;20039;-70
2021/04/21 08:23:31;;;;;;;8.18;4.90;;;;;;;12.27;56.60;95265.97;5102848;27;20059;-70
2021/04/21 08:25:58;;;;;;;7.35;5.45;;;;;;;12.15;56.29;95270.41;5105644;27;20074;-70
2021/04/21 08:28:24;;;;;;;10.75;6.05;;;;;;;12.23;57.13;95259.63;5105149;28;20052;-69
2021/04/21 08:30:54;;;;;;;8.85;6.00;;;;;;;12.39;57.69;95269.34;5105488;27;20044;-69
2021/04/21 08:33:21;;;;;;;13.00;6.68;;;;;;;12.53;58.74;95262.06;5104920;27;20154;-69
2021/04/21 08:35:47;;;;;;;14.13;7.20;;;;;;;12.56;58.05;95266.00;5106282;27;20052;-69
2021/04/21 08:38:15;;;;;;;10.25;6.65;;;;;;;12.77;58.37;95262.75;5105200;28;20051;-70
2021/04/21 08:40:42;;;;;;;14.55;8.77;;;;;;;13.08;58.92;95265.91;5104029;28;20408;-70
2021/04/21 08:43:09;;;;;;;8.52;5.93;;;;;;;13.29;55.04;95255.78;5104681;27;20127;-69
2021/04/21 08:45:36;;;;;;;6.63;5.35;;;;;;;13.31;54.87;95254.56;5103809;28;20057;-69
2021/04/21 08:48:04;;;;;;;8.93;5.50;;;;;;;13.26;52.95;95261.50;5104817;28;20508;-69
2021/04/21 08:50:37;;;;;;;6.18;5.07;;;;;;;13.28;52.31;95254.19;5104678;28;20071;-69
2021/04/21 08:53:07;;;;;;;10.70;4.72;;;;;;;12.99;52.37;95243.78;5106068;27;20468;-69
2021/04/21 08:55:36;;;;;;;6.32;5.03;;;;;;;12.87;53.14;95235.22;5089506;28;20040;-69
2021/04/21 08:58:03;;;;;;;7.68;4.65;;;;;;;13.37;53.68;95244.97;5105653;28;20470;-69
2021/04/21 09:00:30;;;;;;;7.85;5.40;;;;;;;13.69;50.47;95239.94;5105617;28;20578;-70
2021/04/21 09:03:03;;;;;;;5.80;4.45;;;;;;;13.56;47.55;95238.44;5105950;28;20046;-69
2021/04/21 09:05:29;;;;;;;10.32;5.93;;;;;;;14.02;50.24;95234.88;5107189;28;20040;-69
2021/04/21 09:07:56;;;;;;;5.68;4.55;;;;;;;14.17;46.32;95240.34;5105641;27;20043;-70
2021/04/21 09:10:22;;;;;;;5.43;4.70;;;;;;;14.57;45.22;95233.16;5105804;28;20119;-71
2021/04/21 09:12:49;;;;;;;7.05;3.90;;;;;;;14.81;45.05;95228.47;5105403;28;20104;-70
2021/04/21 09:15:17;;;;;;;5.20;4.10;;;;;;;14.84;43.08;95228.00;5104206;28;20119;-70
2021/04/21 09:17:43;;;;;;;9.18;5.88;;;;;;;14.99;44.96;95222.88;5103911;28;20050;-70
2021/04/21 09:20:24;;;;;;;7.63;5.93;;;;;;;15.22;43.52;95218.34;5105613;28;20409;-71
2021/04/21 09:23:11;;;;;;;8.05;5.15;;;;;;;15.20;46.08;95215.19;5107183;28;20036;-71
2021/04/21 09:25:40;;;;;;;6.68;4.68;;;;;;;15.52;42.38;95203.88;5105508;28;20055;-71
2021/04/21 09:28:07;;;;;;;7.47;5.97;;;;;;;15.52;42.06;95212.56;5106046;28;20046;-71
2021/04/21 09:30:36;;;;;;;4.85;4.00;;;;;;;15.51;41.21;95210.16;5105105;28;20073;-70
2021/04/21 09:33:04;;;;;;;7.97;4.43;;;;;;;15.48;40.70;95201.75;5106298;28;20039;-71
2021/04/21 09:35:36;;;;;;;7.68;5.53;;;;;;;15.75;40.93;95205.34;5104704;28;20040;-71
2021/04/21 09:38:15;;;;;;;5.63;3.55;;;;;;;15.59;38.78;95196.56;5105837;28;20043;-71
2021/04/21 09:40:50;;;;;;;4.68;3.30;;;;;;;15.57;38.68;95193.41;5106252;28;20093;-71
2021/04/21 09:43:28;;;;;;;6.38;3.97;;;;;;;15.89;40.80;95200.44;5087293;28;20122;-71
2021/04/21 09:46:00;;;;;;;6.45;4.00;;;;;;;16.40;40.47;95190.13;5104635;28;20043;-71
2021/04/21 09:48:32;;;;;;;4.60;3.55;;;;;;;16.49;39.80;95193.06;5104808;28;20456;-72
2021/04/21 09:51:09;;;;;;;3.53;3.05;;;;;;;16.39;36.83;95193.81;5105008;28;20105;-70
2021/04/21 09:53:44;;;;;;;7.47;3.47;;;;;;;16.61;39.57;95191.78;5105284;28;20043;-72
2021/04/21 09:56:12;;;;;;;3.25;2.90;;;;;;;16.65;33.98;95217.56;5107568;28;20047;-72
2021/04/21 09:58:42;;;;;;;5.40;2.67;;;;;;;16.58;35.60;95202.81;5106458;28;20042;-72
2021/04/21 10:01:37;;;;;;;5.22;3.08;;;;;;;16.27;37.77;95222.16;5105696;28;20088;-72
2021/04/21 10:04:11;;;;;;;4.88;3.28;;;;;;;16.15;40.89;95199.53;5105469;28;20044;-72
2021/04/21 10:06:50;;;;;;;11.43;5.28;;;;;;;15.99;38.72;95218.88;5086815;28;20113;-72
2021/04/21 10:09:30;;;;;;;8.93;4.88;;;;;;;15.49;41.00;95208.59;5103060;28;20440;-71
2021/04/21 10:12:14;;;;;;;5.57;4.78;;;;;;;15.46;42.57;95206.44;5105012;28;20112;-71
2021/04/21 10:14:41;;;;;;;4.97;3.23;;;;;;;15.15;40.94;95207.28;5086767;28;21006;-71
2021/04/21 10:17:08;;;;;;;5.30;3.45;;;;;;;14.94;41.99;95204.47;5105197;28;20420;-71
2021/04/21 10:19:36;;;;;;;5.00;3.15;;;;;;;15.03;43.06;95205.59;5107680;27;20054;-71
2021/04/21 10:22:03;;;;;;;10.05;3.80;;;;;;;15.15;41.33;95207.28;5108199;28;20039;-71
2021/04/21 10:24:30;;;;;;;7.95;3.20;;;;;;;15.70;41.53;95200.84;5108695;28;20040;-71
2021/04/21 10:26:56;;;;;;;7.22;2.65;;;;;;;15.64;38.22;95207.09;5108211;27;20036;-71
2021/04/21 10:29:24;;;;;;;6.55;2.67;;;;;;;15.27;39.47;95215.78;5089477;28;20044;-71
2021/04/21 10:31:54;;;;;;;3.75;2.40;;;;;;;14.93;40.65;95223.88;5107858;27;20114;-71
2021/04/21 10:34:22;;;;;;;3.53;3.03;;;;;;;14.55;42.91;95225.56;5107495;28;20054;-71
2021/04/21 10:36:50;;;;;;;4.85;2.75;;;;;;;14.00;44.77;95214.16;5108369;27;20439;-71
2021/04/21 10:39:35;;;;;;;4.18;2.22;;;;;;;13.64;44.31;95231.22;5108656;28;20039;-71
2021/04/21 10:42:04;;;;;;;5.25;1.90;;;;;;;13.47;44.24;95226.81;5108737;27;20035;-71
2021/04/21 10:44:32;;;;;;;3.35;1.80;;;;;;;13.17;47.51;95222.63;5108288;27;20115;-71
2021/04/21 10:47:02;;;;;;;9.80;4.20;;;;;;;13.07;47.37;95219.88;5108414;28;20040;-69
2021/04/21 10:49:41;;;;;;;3.55;3.25;;;;;;;12.86;47.68;95220.56;5103267;28;20044;-70
2021/04/21 10:52:26;;;;;;;4.57;2.50;;;;;;;12.84;47.36;95202.50;5106895;28;20122;-70
2021/04/21 10:54:59;;;;;;;4.35;2.80;;;;;;;12.96;46.00;95205.84;5109657;27;20120;-70
2021/04/21 10:57:27;;;;;;;4.55;2.13;;;;;;;13.19;45.52;95207.50;5089866;28;20074;-70
2021/04/21 11:00:17;;;;;;;4.60;1.92;;;;;;;13.23;45.48;95215.66;5106536;28;20060;-70
2021/04/21 11:02:49;;;;;;;4.35;1.88;;;;;;;13.09;45.89;95211.78;5106902;27;20439;-71
2021/04/21 11:05:19;;;;;;;2.83;1.95;;;;;;;13.52;45.45;95202.53;5107712;27;20039;-70
2021/04/21 11:07:58;;;;;;;6.95;2.72;;;;;;;14.06;45.25;95218.47;5105478;28;20035;-70
2021/04/21 11:10:41;;;;;;;4.40;3.25;;;;;;;14.16;47.04;95209.91;5105241;28;20062;-71
2021/04/21 11:13:09;;;;;;;4.85;2.90;;;;;;;13.90;45.93;95222.69;5106458;28;20043;-70
2021/04/21 11:15:43;;;;;;;4.53;3.00;;;;;;;14.00;47.10;95218.63;5107248;27;20071;-71
2021/04/21 11:18:12;;;;;;;6.97;3.08;;;;;;;14.13;45.34;95226.13;5106715;27;20035;-71
2021/04/21 11:20:48;;;;;;;3.03;2.10;;;;;;;14.43;43.98;95211.81;5106663;27;20493;-70
2021/04/21 11:23:46;;;;;;;2.63;2.05;;;;;;;14.98;43.33;95208.19;5106470;28;20504;-71
2021/04/21 11:26:24;;;;;;;4.47;2.08;;;;;;;16.11;40.06;95208.94;5105908;27;20069;-72
2021/04/21 11:28:56;;;;;;;7.75;4.32;;;;;;;16.51;39.38;95202.28;5105577;28;20048;-72
2021/04/21 11:31:43;;;;;;;3.28;1.40;;;;;;;16.75;37.36;95207.06;5104840;28;20047;-69
2021/04/21 11:34:12;;;;;;;6.05;3.35;;;;;;;16.98;37.59;95205.81;5106790;28;20032;-71
2021/04/21 11:36:53;;;;;;;7.25;4.30;;;;;;;17.21;35.42;95201.88;5105850;28;20493;-71
2021/04/21 11:39:47;;;;;;;5.72;4.28;;;;;;;17.72;36.36;95201.81;5106002;28;20492;-71
2021/04/21 11:42:34;;;;;;;5.07;2.63;;;;;;;17.52;35.41;95199.22;5103575;28;20409;-70
2021/04/21 11:45:16;;;;;;;3.53;2.85;;;;;;;17.27;37.23;95198.19;5106196;28;20126;-71
2021/04/21 11:47:55;;;;;;;2.75;2.08;;;;;;;17.74;35.57;95207.63;5107661;28;20069;-70
2021/04/21 11:50:29;;;;;;;4.47;3.72;;;;;;;18.28;35.53;95184.28;5106318;28;20119;-71
2021/04/21 11:52:58;;;;;;;3.42;2.22;;;;;;;18.48;34.31;95207.94;5106989;28;20067;-70
2021/04/21 11:55:53;;;;;;;3.28;1.88;;;;;;;18.07;33.59;95194.91;5106855;27;20767;-68
2021/04/21 11:58:38;;;;;;;2.55;2.35;;;;;;;17.61;34.39;95196.84;5107050;28;20035;-69
2021/04/21 12:01:13;;;;;;;5.53;2.20;;;;;;;17.24;35.75;95208.47;5106357;27;20519;-69